createdAt,value
2022-12-13T00:00:57.210Z,-6.71
2022-12-13T00:03:23.671Z,-6.50
2022-12-13T00:05:50.123Z,-6.63
2022-12-13T00:08:16.798Z,-6.75
2022-12-13T00:10:43.374Z,-6.53
2022-12-13T00:13:09.892Z,-6.64
2022-12-13T00:15:36.371Z,-6.73
2022-12-13T00:18:02.977Z,-6.79
2022-12-13T00:20:29.982Z,-6.81
2022-12-13T00:22:57.537Z,-6.80
2022-12-13T00:25:24.112Z,-6.74
2022-12-13T00:27:50.571Z,-6.69
2022-12-13T00:30:17.034Z,-6.71
2022-12-13T00:32:43.496Z,-6.72
2022-12-13T00:35:09.944Z,-6.85
2022-12-13T00:37:36.430Z,-6.74
2022-12-13T00:40:03.048Z,-6.74
2022-12-13T00:42:29.512Z,-6.67
2022-12-13T00:44:56.025Z,-6.70
2022-12-13T00:47:23.851Z,-6.65
2022-12-13T00:49:50.364Z,-6.64
2022-12-13T00:52:16.907Z,-6.55
2022-12-13T00:54:43.343Z,-6.42
2022-12-13T00:57:09.806Z,-6.58
2022-12-13T00:59:36.251Z,-6.58
2022-12-13T01:02:02.781Z,-6.51
2022-12-13T01:04:29.373Z,-6.42
2022-12-13T01:06:55.903Z,-6.41
2022-12-13T01:09:27.286Z,-6.40
2022-12-13T01:11:59.054Z,-6.38
2022-12-13T01:14:26.132Z,-6.26
2022-12-13T01:16:55.801Z,-6.26
2022-12-13T01:19:23.579Z,-6.34
2022-12-13T01:21:50.268Z,-6.37
2022-12-13T01:24:20.522Z,-6.38
2022-12-13T01:26:47.546Z,-6.45
2022-12-13T01:29:14.200Z,-6.50
2022-12-13T01:31:41.816Z,-6.46
2022-12-13T01:34:11.406Z,-6.38
2022-12-13T01:36:39.541Z,-6.46
2022-12-13T01:39:14.362Z,-6.44
2022-12-13T01:41:42.300Z,-6.42
2022-12-13T01:44:46.548Z,-6.50
2022-12-13T01:47:14.421Z,-6.56
2022-12-13T01:49:41.740Z,-6.63
2022-12-13T01:52:10.709Z,-6.50
2022-12-13T01:54:46.545Z,-6.53
2022-12-13T01:57:17.619Z,-6.58
2022-12-13T01:59:45.903Z,-6.58
2022-12-13T02:02:14.810Z,-6.60
2022-12-13T02:04:54.052Z,-6.44
2022-12-13T02:07:26.541Z,-6.42
2022-12-13T02:09:57.301Z,-6.40
2022-12-13T02:12:30.337Z,-6.50
2022-12-13T02:15:01.238Z,-6.64
2022-12-13T02:17:48.249Z,-6.61
2022-12-13T02:20:37.365Z,-6.63
2022-12-13T02:23:40.963Z,-6.75
2022-12-13T02:26:25.080Z,-6.79
2022-12-13T02:29:30.908Z,-6.84
2022-12-13T02:32:30.012Z,-6.83
2022-12-13T02:35:17.758Z,-6.76
2022-12-13T02:37:51.033Z,-6.72
2022-12-13T02:40:29.996Z,-6.79
2022-12-13T02:43:10.175Z,-6.86
2022-12-13T02:45:46.736Z,-6.98
2022-12-13T02:48:17.397Z,-6.97
2022-12-13T02:50:46.023Z,-6.81
2022-12-13T02:53:15.380Z,-6.91
2022-12-13T02:55:41.863Z,-6.92
2022-12-13T02:58:13.669Z,-6.85
2022-12-13T03:00:51.850Z,-6.83
2022-12-13T03:03:43.422Z,-6.96
2022-12-13T03:06:37.638Z,-6.84
2022-12-13T03:09:25.784Z,-6.81
2022-12-13T03:12:16.860Z,-6.88
2022-12-13T03:15:34.564Z,-6.83
2022-12-13T03:18:15.769Z,-6.86
2022-12-13T03:20:56.112Z,-6.99
2022-12-13T03:23:23.601Z,-6.99
2022-12-13T03:26:01.467Z,-6.85
2022-12-13T03:28:28.340Z,-6.85
2022-12-13T03:30:54.835Z,-6.94
2022-12-13T03:33:22.577Z,-6.81
2022-12-13T03:35:49.153Z,-6.89
2022-12-13T03:38:21.800Z,-6.85
2022-12-13T03:40:57.493Z,-6.82
2022-12-13T03:43:24.695Z,-6.87
2022-12-13T03:45:52.785Z,-6.89
2022-12-13T03:48:22.441Z,-7.03
2022-12-13T03:50:50.570Z,-7.04
2022-12-13T03:53:32.328Z,-6.90
2022-12-13T03:56:01.938Z,-7.13
2022-12-13T03:58:35.827Z,-7.02
2022-12-13T04:01:13.120Z,-6.82
2022-12-13T04:03:41.173Z,-6.86
2022-12-13T04:06:08.695Z,-6.83
2022-12-13T04:08:37.857Z,-6.87
2022-12-13T04:11:25.325Z,-6.90
2022-12-13T04:13:53.426Z,-6.86
2022-12-13T04:16:20.415Z,-6.87
2022-12-13T04:18:46.902Z,-6.86
2022-12-13T04:21:13.447Z,-6.91
2022-12-13T04:23:39.991Z,-6.95
2022-12-13T04:26:06.528Z,-6.97
2022-12-13T04:28:33.160Z,-6.98
2022-12-13T04:30:59.602Z,-6.93
2022-12-13T04:33:26.104Z,-7.01
2022-12-13T04:35:52.624Z,-6.87
2022-12-13T04:38:19.701Z,-6.99
2022-12-13T04:40:46.408Z,-6.93
2022-12-13T04:43:12.911Z,-6.90
2022-12-13T04:45:39.472Z,-6.80
2022-12-13T04:48:06.171Z,-6.89
2022-12-13T04:50:32.949Z,-6.87
2022-12-13T04:52:59.747Z,-6.90
2022-12-13T04:55:26.253Z,-7.03
2022-12-13T04:57:52.719Z,-7.14
2022-12-13T05:00:21.999Z,-7.07
2022-12-13T05:02:48.521Z,-6.90
2022-12-13T05:05:15.284Z,-7.14
2022-12-13T05:07:42.879Z,-7.16
2022-12-13T05:10:10.823Z,-7.03
2022-12-13T05:12:37.351Z,-7.08
2022-12-13T05:15:04.415Z,-7.10
2022-12-13T05:17:30.933Z,-7.06
2022-12-13T05:19:57.438Z,-6.91
2022-12-13T05:22:23.885Z,-6.89
2022-12-13T05:24:50.407Z,-6.83
2022-12-13T05:27:25.779Z,-6.87
2022-12-13T05:30:03.208Z,-6.94
2022-12-13T05:32:43.543Z,-7.03
2022-12-13T05:35:22.919Z,-7.00
2022-12-13T05:37:53.648Z,-7.04
2022-12-13T05:40:22.955Z,-7.04
2022-12-13T05:42:49.526Z,-7.09
2022-12-13T05:45:17.710Z,-7.05
2022-12-13T05:47:44.491Z,-7.08
2022-12-13T05:50:11.535Z,-7.07
2022-12-13T05:52:38.168Z,-7.06
2022-12-13T05:55:05.107Z,-7.15
2022-12-13T05:57:32.164Z,-7.24
2022-12-13T06:00:00.756Z,-7.24
2022-12-13T06:02:28.519Z,-7.10
2022-12-13T06:04:55.076Z,-7.13
2022-12-13T06:07:21.552Z,-7.22
2022-12-13T06:09:48.059Z,-7.29
2022-12-13T06:12:31.846Z,-7.19
2022-12-13T06:15:01.208Z,-7.12
2022-12-13T06:17:32.742Z,-7.10
2022-12-13T06:20:00.181Z,-7.24
2022-12-13T06:22:27.392Z,-7.00
2022-12-13T06:24:54.072Z,-7.23
2022-12-13T06:27:21.091Z,-7.32
2022-12-13T06:29:47.642Z,-7.39
2022-12-13T06:32:14.239Z,-7.35
2022-12-13T06:34:40.702Z,-7.33
2022-12-13T06:37:11.140Z,-7.31
2022-12-13T06:39:37.598Z,-7.32
2022-12-13T06:42:08.438Z,-7.21
2022-12-13T06:44:35.454Z,-7.23
2022-12-13T06:47:11.115Z,-7.32
2022-12-13T06:49:41.171Z,-7.36
2022-12-13T06:52:11.726Z,-7.40
2022-12-13T06:54:38.241Z,-7.43
2022-12-13T06:57:04.742Z,-7.40
2022-12-13T06:59:31.201Z,-7.35
2022-12-13T07:02:03.195Z,-7.44
2022-12-13T07:04:31.444Z,-7.43
2022-12-13T07:07:00.973Z,-7.31
2022-12-13T07:09:30.340Z,-7.49
2022-12-13T07:11:57.101Z,-7.53
2022-12-13T07:14:23.685Z,-7.51
2022-12-13T07:16:50.176Z,-7.46
2022-12-13T07:19:23.516Z,-7.43
2022-12-13T07:21:51.787Z,-7.46
2022-12-13T07:24:18.446Z,-7.43
2022-12-13T07:26:44.908Z,-7.31
2022-12-13T07:29:11.408Z,-7.49
2022-12-13T07:31:37.912Z,-7.18
2022-12-13T07:34:04.526Z,-7.36
2022-12-13T07:36:31.012Z,-7.44
2022-12-13T07:38:57.953Z,-7.16
2022-12-13T07:41:26.244Z,-7.26
2022-12-13T07:43:55.993Z,-7.24
2022-12-13T07:46:33.542Z,-7.06
2022-12-13T07:49:05.459Z,-7.07
2022-12-13T07:51:34.702Z,-7.10
2022-12-13T07:54:06.302Z,-7.15
2022-12-13T07:56:34.393Z,-6.92
2022-12-13T07:59:00.830Z,-7.06
2022-12-13T08:01:27.563Z,-6.86
2022-12-13T08:03:54.235Z,-6.81
2022-12-13T08:06:20.696Z,-6.91
2022-12-13T08:08:50.581Z,-6.72
2022-12-13T08:11:17.428Z,-6.76
2022-12-13T08:13:46.504Z,-6.58
2022-12-13T08:16:28.192Z,-6.60
2022-12-13T08:19:02.756Z,-6.55
2022-12-13T08:24:26.567Z,-6.34
2022-12-13T08:26:54.615Z,-6.38
2022-12-13T08:29:22.322Z,-6.42
2022-12-13T08:31:58.937Z,-6.40
2022-12-13T08:34:27.849Z,-6.24
2022-12-13T08:37:02.231Z,-6.31
2022-12-13T08:39:35.312Z,-6.11
2022-12-13T08:42:17.078Z,-6.01
2022-12-13T08:44:49.877Z,-6.15
2022-12-13T08:47:24.268Z,-6.11
2022-12-13T08:50:02.181Z,-5.89
2022-12-13T08:52:31.740Z,-5.93
2022-12-13T08:54:58.227Z,-5.86
2022-12-13T08:57:24.836Z,-6.10
2022-12-13T08:59:51.355Z,-5.95
2022-12-13T09:02:18.068Z,-5.74
2022-12-13T09:04:44.707Z,-5.78
2022-12-13T09:07:11.409Z,-5.90
2022-12-13T09:09:40.320Z,-6.07
2022-12-13T09:12:10.916Z,-5.89
2022-12-13T09:15:01.308Z,-5.95
2022-12-13T09:17:37.227Z,-5.89
2022-12-13T09:20:10.006Z,-5.63
2022-12-13T09:22:54.360Z,-5.88
2022-12-13T09:25:37.362Z,-5.92
2022-12-13T09:28:08.452Z,-5.93
2022-12-13T09:30:40.045Z,-5.62
2022-12-13T09:33:29.590Z,-4.92
2022-12-13T09:35:58.136Z,-4.87
2022-12-13T09:38:27.794Z,-4.56
2022-12-13T09:40:59.135Z,-4.69
2022-12-13T09:43:33.102Z,-4.93
2022-12-13T09:46:22.363Z,-4.64
2022-12-13T09:48:53.452Z,-4.47
2022-12-13T09:51:43.169Z,-4.25
2022-12-13T09:54:19.101Z,-3.38
2022-12-13T09:56:50.580Z,-4.05
2022-12-13T09:59:28.373Z,-4.17
2022-12-13T10:01:56.141Z,-4.48
2022-12-13T10:04:23.216Z,-4.48
2022-12-13T10:06:54.042Z,-4.87
2022-12-13T10:09:20.882Z,-4.54
2022-12-13T10:11:52.453Z,-4.41
2022-12-13T10:14:35.056Z,-4.63
2022-12-13T10:17:05.195Z,-4.06
2022-12-13T10:19:43.120Z,-3.87
2022-12-13T10:22:13.912Z,-3.34
2022-12-13T10:24:54.036Z,-3.60
2022-12-13T10:27:36.945Z,-2.65
2022-12-13T10:30:10.859Z,-2.71
2022-12-13T10:32:54.939Z,-2.71
2022-12-13T10:35:27.571Z,-3.12
2022-12-13T10:37:55.807Z,-2.57
2022-12-13T10:40:31.905Z,-3.15
2022-12-13T10:43:20.900Z,-3.39
2022-12-13T10:45:59.345Z,-3.21
2022-12-13T10:48:49.152Z,-3.40
2022-12-13T10:51:20.040Z,-4.17
2022-12-13T10:53:56.296Z,-4.07
2022-12-13T10:56:34.640Z,-3.87
2022-12-13T10:59:25.958Z,-3.71
2022-12-13T11:01:52.924Z,-3.87
2022-12-13T11:04:34.217Z,-3.70
2022-12-13T11:07:22.112Z,-3.92
2022-12-13T11:09:52.455Z,-3.81
2022-12-13T11:12:28.799Z,-3.27
2022-12-13T11:15:01.734Z,-3.70
2022-12-13T11:17:32.157Z,-3.77
2022-12-13T11:20:07.494Z,-3.63
2022-12-13T11:22:37.892Z,-3.69
2022-12-13T11:25:33.740Z,-3.70
2022-12-13T11:28:25.810Z,-3.82
2022-12-13T11:31:25.911Z,-4.01
2022-12-13T11:34:18.935Z,-4.47
2022-12-13T11:36:57.248Z,-4.53
2022-12-13T11:39:36.973Z,-4.26
2022-12-13T11:42:31.666Z,-4.05
2022-12-13T11:45:22.263Z,-4.07
2022-12-13T11:48:14.424Z,-3.72
2022-12-13T11:50:46.197Z,-3.88
2022-12-13T11:53:23.276Z,-3.88
2022-12-13T11:56:05.808Z,-4.01
2022-12-13T12:01:38.473Z,-3.79
2022-12-13T12:04:17.924Z,-3.82
2022-12-13T12:07:32.714Z,-3.77
2022-12-13T12:10:27.157Z,-3.40
2022-12-13T12:13:04.374Z,-3.49
2022-12-13T12:15:41.568Z,-3.28
2022-12-13T12:18:15.849Z,-3.10
2022-12-13T12:21:00.594Z,-3.40
2022-12-13T12:24:02.834Z,-3.51
2022-12-13T12:26:46.172Z,-3.32
2022-12-13T12:29:15.459Z,-3.09
2022-12-13T12:32:06.888Z,-3.40
2022-12-13T12:35:16.364Z,-3.50
2022-12-13T12:38:13.704Z,-3.41
2022-12-13T12:41:16.201Z,-3.37
2022-12-13T12:43:44.978Z,-3.45
2022-12-13T12:46:14.787Z,-3.44
2022-12-13T12:49:02.435Z,-3.50
2022-12-13T12:51:48.271Z,-3.45
2022-12-13T12:54:37.583Z,-3.36
2022-12-13T12:57:32.583Z,-3.59
2022-12-13T13:00:04.140Z,-3.70
2022-12-13T13:03:01.812Z,-3.65
2022-12-13T13:06:01.966Z,-3.65
2022-12-13T13:08:37.765Z,-3.71
2022-12-13T13:11:24.674Z,-3.56
2022-12-13T13:14:01.617Z,-3.50
2022-12-13T13:16:39.138Z,-3.58
2022-12-13T13:19:31.368Z,-3.80
2022-12-13T13:22:01.532Z,-3.57
2022-12-13T13:24:31.116Z,-3.92
2022-12-13T13:27:00.315Z,-3.88
2022-12-13T13:29:32.132Z,-3.85
2022-12-13T13:32:28.821Z,-3.74
2022-12-13T13:35:28.550Z,-3.68
2022-12-13T13:37:57.127Z,-3.72
2022-12-13T13:40:29.797Z,-3.84
2022-12-13T13:43:08.613Z,-4.03
2022-12-13T13:46:11.547Z,-3.88
2022-12-13T13:49:07.260Z,-3.95
2022-12-13T13:55:20.026Z,-4.08
2022-12-13T13:58:29.004Z,-4.05
2022-12-13T14:01:20.594Z,-4.05
2022-12-13T14:03:56.033Z,-4.05
2022-12-13T14:06:48.382Z,-4.03
2022-12-13T14:09:29.974Z,-4.28
2022-12-13T14:12:05.546Z,-4.27
2022-12-13T14:15:09.781Z,-4.39
2022-12-13T14:18:13.606Z,-4.19
2022-12-13T14:21:11.052Z,-4.18
2022-12-13T14:24:05.455Z,-4.31
2022-12-13T14:27:00.636Z,-4.21
2022-12-13T14:29:39.668Z,-4.45
2022-12-13T14:32:30.144Z,-4.32
2022-12-13T14:34:58.067Z,-4.35
2022-12-13T14:37:28.916Z,-4.45
2022-12-13T14:39:55.566Z,-4.45
2022-12-13T14:42:25.711Z,-4.38
2022-12-13T14:44:53.165Z,-4.33
2022-12-13T14:47:21.017Z,-4.54
2022-12-13T14:49:53.273Z,-4.52
2022-12-13T14:52:33.451Z,-4.53
2022-12-13T14:55:04.543Z,-4.67
2022-12-13T14:57:33.193Z,-4.55
2022-12-13T15:00:02.298Z,-4.71
2022-12-13T15:02:32.178Z,-4.55
2022-12-13T15:05:01.612Z,-4.72
2022-12-13T15:07:41.884Z,-4.74
2022-12-13T15:10:26.598Z,-4.71
2022-12-13T15:12:54.065Z,-4.66
2022-12-13T15:15:31.317Z,-4.93
2022-12-13T15:18:09.689Z,-4.93
2022-12-13T15:20:47.512Z,-4.79
2022-12-13T15:23:26.980Z,-4.92
2022-12-13T15:26:08.103Z,-4.86
2022-12-13T15:28:37.894Z,-5.00
2022-12-13T15:31:05.911Z,-4.96
2022-12-13T15:33:37.942Z,-4.91
2022-12-13T15:36:22.162Z,-4.94
2022-12-13T15:39:04.198Z,-5.02
2022-12-13T15:41:37.042Z,-5.07
2022-12-13T15:44:07.624Z,-5.02
2022-12-13T15:46:38.125Z,-5.15
2022-12-13T15:49:17.844Z,-5.13
2022-12-13T15:52:05.052Z,-5.14
2022-12-13T15:54:32.819Z,-5.18
2022-12-13T15:57:14.329Z,-5.25
2022-12-13T15:59:42.876Z,-5.31
2022-12-13T16:02:20.979Z,-5.27
2022-12-13T16:04:47.702Z,-5.13
2022-12-13T16:07:32.890Z,-5.03
2022-12-13T16:09:59.456Z,-5.04
2022-12-13T16:12:37.659Z,-5.20
2022-12-13T16:15:28.515Z,-5.12
2022-12-13T16:18:26.810Z,-5.08
2022-12-13T16:20:54.319Z,-4.76
2022-12-13T16:23:26.993Z,-4.87
2022-12-13T16:25:54.428Z,-4.69
2022-12-13T16:28:21.524Z,-4.82
2022-12-13T16:30:52.839Z,-4.83
2022-12-13T16:33:28.498Z,-4.88
2022-12-13T16:35:56.005Z,-4.78
2022-12-13T16:38:26.970Z,-4.92
2022-12-13T16:40:56.516Z,-4.96
2022-12-13T16:43:32.795Z,-4.74
2022-12-13T16:47:09.988Z,-4.84
2022-12-13T16:48:50.496Z,-4.87
2022-12-13T16:51:16.976Z,-4.79
2022-12-13T16:53:43.797Z,-4.86
2022-12-13T16:56:11.436Z,-4.67
2022-12-13T16:58:37.960Z,-4.66
2022-12-13T17:01:11.971Z,-4.84
2022-12-13T17:03:39.069Z,-4.96
2022-12-13T17:06:08.247Z,-4.69
2022-12-13T17:08:34.705Z,-4.81
2022-12-13T17:11:01.224Z,-4.81
2022-12-13T17:13:28.689Z,-4.84
2022-12-13T17:15:59.113Z,-4.72
2022-12-13T17:18:26.818Z,-4.68
2022-12-13T17:20:58.253Z,-4.75
2022-12-13T17:23:27.224Z,-2.04
2022-12-13T17:25:58.081Z,-3.15
2022-12-13T17:28:25.562Z,-4.21
2022-12-13T17:30:54.905Z,-4.45
2022-12-13T17:33:22.136Z,-4.71
2022-12-13T17:35:48.720Z,-4.73
2022-12-13T17:38:15.195Z,-4.64
2022-12-13T17:40:41.720Z,-4.65
2022-12-13T17:43:09.490Z,-4.76
2022-12-13T17:45:43.775Z,-4.78
2022-12-13T17:48:10.479Z,-4.87
2022-12-13T17:50:39.796Z,-4.89
2022-12-13T17:53:06.297Z,-4.71
2022-12-13T17:55:32.846Z,-4.79
2022-12-13T17:58:04.232Z,-4.69
2022-12-13T18:00:31.197Z,-4.81
2022-12-13T18:02:57.756Z,-4.78
2022-12-13T18:05:27.001Z,-4.61
2022-12-13T18:07:53.469Z,-4.60
2022-12-13T18:10:22.578Z,-4.63
2022-12-13T18:12:52.805Z,-4.62
2022-12-13T18:15:19.237Z,-4.74
2022-12-13T18:18:10.864Z,-4.65
2022-12-13T18:20:35.623Z,-4.69
2022-12-13T18:23:02.162Z,-4.67
2022-12-13T18:25:29.698Z,-4.67
2022-12-13T18:28:00.869Z,-4.84
2022-12-13T18:30:28.156Z,-4.83
2022-12-13T18:32:54.728Z,-4.75
2022-12-13T18:35:21.172Z,-4.65
2022-12-13T18:37:47.727Z,-4.80
2022-12-13T18:40:14.242Z,-4.76
2022-12-13T18:42:40.854Z,-4.52
2022-12-13T18:45:07.517Z,-4.68
2022-12-13T18:47:34.014Z,-4.59
2022-12-13T18:50:00.496Z,-4.60
2022-12-13T18:52:26.957Z,-4.61
2022-12-13T18:54:54.787Z,-4.65
2022-12-13T18:57:21.701Z,-4.81
2022-12-13T18:59:54.444Z,-4.84
2022-12-13T19:02:21.794Z,-4.75
2022-12-13T19:04:55.397Z,-4.70
2022-12-13T19:07:22.437Z,-4.77
2022-12-13T19:09:54.502Z,-4.79
2022-12-13T19:12:22.330Z,-4.83
2022-12-13T19:14:54.481Z,-4.82
2022-12-13T19:17:21.831Z,-4.81
2022-12-13T19:19:48.409Z,-4.83
2022-12-13T19:22:15.830Z,-4.74
2022-12-13T19:24:42.489Z,-4.78
2022-12-13T19:27:08.919Z,-4.80
2022-12-13T19:29:35.379Z,-4.84
2022-12-13T19:32:01.960Z,-4.75
2022-12-13T19:34:28.501Z,-4.92
2022-12-13T19:36:55.012Z,-4.90
2022-12-13T19:39:21.491Z,-4.83
2022-12-13T19:41:48.024Z,-4.75
2022-12-13T19:44:14.486Z,-4.84
2022-12-13T19:46:41.035Z,-4.87
2022-12-13T19:49:07.512Z,-4.76
2022-12-13T19:51:39.404Z,-4.85
2022-12-13T19:54:06.793Z,-4.77
2022-12-13T19:56:33.240Z,-4.69
2022-12-13T19:58:59.754Z,-4.84
2022-12-13T20:01:26.258Z,-4.81
2022-12-13T20:03:52.872Z,-4.65
2022-12-13T20:06:22.097Z,-4.79
2022-12-13T20:08:49.239Z,-4.89
2022-12-13T20:11:19.487Z,-4.95
2022-12-13T20:13:48.057Z,-4.82
2022-12-13T20:16:21.194Z,-4.76
2022-12-13T20:18:48.678Z,-4.70
2022-12-13T20:21:15.742Z,-4.86
2022-12-13T20:23:48.983Z,-4.96
2022-12-13T20:26:19.921Z,-4.85
2022-12-13T20:28:47.183Z,-4.91
2022-12-13T20:31:19.758Z,-4.89
2022-12-13T20:33:46.743Z,-4.77
2022-12-13T20:36:26.324Z,-4.82
2022-12-13T20:38:58.701Z,-4.71
2022-12-13T20:41:30.327Z,-4.74
2022-12-13T20:43:58.835Z,-4.74
2022-12-13T20:46:27.484Z,-4.79
2022-12-13T20:48:56.043Z,-4.87
2022-12-13T20:51:24.680Z,-4.82
2022-12-13T20:53:53.015Z,-4.82
2022-12-13T20:56:22.354Z,-4.68
2022-12-13T20:58:49.000Z,-4.91
2022-12-13T21:01:17.981Z,-4.86
2022-12-13T21:03:45.354Z,-4.80
2022-12-13T21:06:12.043Z,-4.74
2022-12-13T21:08:54.747Z,-4.65
2022-12-13T21:11:28.861Z,-4.80
2022-12-13T21:14:09.898Z,-4.74
2022-12-13T21:16:41.583Z,-4.71
2022-12-13T21:19:10.299Z,-4.63
2022-12-13T21:21:37.374Z,-4.54
2022-12-13T21:24:04.744Z,-4.72
2022-12-13T21:26:35.755Z,-4.75
2022-12-13T21:29:05.345Z,-4.66
2022-12-13T21:31:31.997Z,-4.75
2022-12-13T21:34:02.057Z,-4.80
2022-12-13T21:36:33.895Z,-4.69
2022-12-13T21:39:02.866Z,-4.75
2022-12-13T21:41:30.273Z,-4.74
2022-12-13T21:43:56.834Z,-4.59
2022-12-13T21:46:41.449Z,-4.75
2022-12-13T21:49:15.301Z,-4.83
2022-12-13T21:51:47.438Z,-4.71
2022-12-13T21:54:14.614Z,-4.82
2022-12-13T21:56:59.325Z,-4.75
2022-12-13T21:59:27.375Z,-4.71
2022-12-13T22:02:12.243Z,-4.85
2022-12-13T22:04:46.239Z,-4.82
2022-12-13T22:07:22.459Z,-4.67
2022-12-13T22:09:49.715Z,-4.65
2022-12-13T22:12:30.828Z,-4.50
2022-12-13T22:14:57.534Z,-4.47
2022-12-13T22:17:31.358Z,-4.54
2022-12-13T22:20:01.999Z,-4.52
2022-12-13T22:22:28.820Z,-4.68
2022-12-13T22:24:55.256Z,-4.64
2022-12-13T22:27:26.045Z,-4.71
2022-12-13T22:29:54.378Z,-4.69
2022-12-13T22:32:21.034Z,-4.65
2022-12-13T22:34:47.515Z,-4.58
2022-12-13T22:37:14.312Z,-4.70
2022-12-13T22:39:40.764Z,-4.73
2022-12-13T22:42:07.443Z,-4.73
2022-12-13T22:44:33.974Z,-4.45
2022-12-13T22:47:00.650Z,-4.43
2022-12-13T22:49:27.317Z,-4.34
2022-12-13T22:51:53.918Z,-4.52
2022-12-13T22:54:20.407Z,-4.41
2022-12-13T22:56:49.888Z,-4.41
2022-12-13T22:59:16.588Z,-4.40
2022-12-13T23:01:43.253Z,-4.36
2022-12-13T23:04:14.530Z,-4.36
2022-12-13T23:06:41.664Z,-4.44
2022-12-13T23:09:11.301Z,-4.42
2022-12-13T23:11:56.283Z,-4.56
2022-12-13T23:14:31.215Z,-4.43
2022-12-13T23:16:58.413Z,-4.29
2022-12-13T23:19:41.513Z,-4.16
2022-12-13T23:22:12.098Z,-4.22
2022-12-13T23:24:38.639Z,-4.40
2022-12-13T23:27:05.114Z,-4.30
2022-12-13T23:29:31.562Z,-4.35
2022-12-13T23:31:58.186Z,-4.37
2022-12-13T23:34:24.646Z,-4.54
2022-12-13T23:36:51.076Z,-4.28
2022-12-13T23:39:17.534Z,-4.36
2022-12-13T23:41:43.984Z,-4.19
2022-12-13T23:44:10.527Z,-4.38
2022-12-13T23:46:37.247Z,-4.37
2022-12-13T23:49:05.742Z,-4.42
2022-12-13T23:51:33.336Z,-4.33
2022-12-13T23:53:59.906Z,-4.43
2022-12-13T23:56:26.623Z,-4.33
2022-12-13T23:58:53.100Z,-4.40
